createdAt,value
2019-03-23T00:02:05.398Z,99.90
2019-03-23T00:04:32.825Z,99.90
2019-03-23T00:07:00.116Z,99.90
2019-03-23T00:09:27.553Z,99.90
2019-03-23T00:11:55.035Z,99.90
2019-03-23T00:14:22.584Z,99.90
2019-03-23T00:16:49.973Z,99.90
2019-03-23T00:19:17.638Z,99.90
2019-03-23T00:21:45.188Z,99.90
2019-03-23T00:24:12.672Z,99.90
2019-03-23T00:26:40.213Z,99.90
2019-03-23T00:29:07.620Z,99.90
2019-03-23T00:31:34.969Z,99.90
2019-03-23T00:34:02.446Z,99.90
2019-03-23T00:36:29.876Z,99.90
2019-03-23T00:38:57.161Z,99.90
2019-03-23T00:41:24.510Z,99.90
2019-03-23T00:43:51.847Z,99.90
2019-03-23T00:46:21.185Z,99.90
2019-03-23T00:48:48.602Z,99.90
2019-03-23T00:51:16.002Z,99.90
2019-03-23T00:53:43.429Z,99.90
2019-03-23T00:56:10.807Z,99.90
2019-03-23T00:58:38.346Z,99.90
2019-03-23T01:01:05.757Z,99.90
2019-03-23T01:03:33.080Z,99.90
2019-03-23T01:06:00.485Z,99.90
2019-03-23T01:08:27.790Z,99.90
2019-03-23T01:10:55.421Z,99.90
2019-03-23T01:13:22.906Z,99.90
2019-03-23T01:15:50.291Z,99.90
2019-03-23T01:18:17.584Z,99.90
2019-03-23T01:20:49.555Z,99.90
2019-03-23T01:23:14.231Z,99.90
2019-03-23T01:25:41.787Z,99.90
2019-03-23T01:28:09.359Z,99.90
2019-03-23T01:30:36.770Z,99.90
2019-03-23T01:33:04.406Z,99.90
2019-03-23T01:35:31.732Z,99.90
2019-03-23T01:37:59.023Z,99.90
2019-03-23T01:40:26.379Z,99.90
2019-03-23T01:42:53.685Z,99.90
2019-03-23T01:45:21.230Z,99.90
2019-03-23T01:47:48.669Z,99.90
2019-03-23T01:50:16.244Z,99.90
2019-03-23T01:52:43.624Z,99.90
2019-03-23T01:55:11.339Z,99.90
2019-03-23T01:57:38.946Z,99.90
2019-03-23T02:00:07.124Z,99.90
2019-03-23T02:02:34.983Z,99.90
2019-03-23T02:05:02.815Z,99.90
2019-03-23T02:07:30.151Z,99.90
2019-03-23T02:09:57.495Z,99.90
2019-03-23T02:12:24.912Z,99.90
2019-03-23T02:14:52.159Z,99.90
2019-03-23T02:17:20.670Z,99.90
2019-03-23T02:19:48.228Z,99.90
2019-03-23T02:22:15.853Z,99.90
2019-03-23T02:24:43.240Z,99.90
2019-03-23T02:27:10.804Z,99.90
2019-03-23T02:29:38.159Z,99.90
2019-03-23T02:32:05.600Z,99.90
2019-03-23T02:34:33.141Z,99.90
2019-03-23T02:37:00.497Z,99.90
2019-03-23T02:39:28.160Z,99.90
2019-03-23T02:41:55.614Z,99.90
2019-03-23T02:44:23.071Z,99.90
2019-03-23T02:46:50.360Z,99.90
2019-03-23T02:49:17.917Z,99.90
2019-03-23T02:51:45.355Z,99.90
2019-03-23T02:54:12.984Z,99.90
2019-03-23T02:56:40.241Z,99.90
2019-03-23T02:59:07.880Z,99.90
2019-03-23T03:01:35.356Z,99.90
2019-03-23T03:04:02.900Z,99.90
2019-03-23T03:06:30.384Z,99.90
2019-03-23T03:08:57.962Z,99.90
2019-03-23T03:11:25.252Z,99.90
2019-03-23T03:13:52.564Z,99.90
2019-03-23T03:16:20.106Z,99.90
2019-03-23T03:18:47.516Z,99.90
2019-03-23T03:21:14.867Z,99.90
2019-03-23T03:23:42.200Z,99.90
2019-03-23T03:26:09.678Z,99.90
2019-03-23T03:28:37.010Z,99.90
2019-03-23T03:31:04.549Z,99.90
2019-03-23T03:33:31.976Z,99.90
2019-03-23T03:35:59.256Z,99.90
2019-03-23T03:38:26.546Z,99.90
2019-03-23T03:40:54.275Z,99.90
2019-03-23T03:43:21.663Z,99.90
2019-03-23T03:45:49.214Z,99.90
2019-03-23T03:48:16.571Z,99.90
2019-03-23T03:50:43.936Z,99.90
2019-03-23T03:53:11.212Z,99.90
2019-03-23T03:55:38.699Z,99.90
2019-03-23T03:58:07.312Z,99.90
2019-03-23T04:00:34.627Z,99.90
2019-03-23T04:03:02.168Z,99.90
2019-03-23T04:05:29.455Z,99.90
2019-03-23T04:08:09.892Z,99.90
2019-03-23T04:10:26.050Z,99.90
2019-03-23T04:12:53.357Z,99.90
2019-03-23T04:15:20.835Z,99.90
2019-03-23T04:17:48.343Z,99.90
2019-03-23T04:20:15.721Z,99.90
2019-03-23T04:22:43.092Z,99.90
2019-03-23T04:25:10.700Z,99.90
2019-03-23T04:27:37.969Z,99.90
2019-03-23T04:30:06.378Z,99.90
2019-03-23T04:32:34.209Z,99.90
2019-03-23T04:35:03.524Z,99.90
2019-03-23T04:37:30.795Z,99.90
2019-03-23T04:39:58.051Z,99.90
2019-03-23T04:42:25.507Z,99.90
2019-03-23T04:44:52.923Z,99.90
2019-03-23T04:47:20.378Z,99.90
2019-03-23T04:49:47.975Z,99.90
2019-03-23T04:52:15.375Z,99.90
2019-03-23T04:54:42.727Z,99.90
2019-03-23T04:57:10.219Z,99.90
2019-03-23T04:59:37.595Z,99.90
2019-03-23T05:02:05.192Z,99.90
2019-03-23T05:04:32.505Z,99.90
2019-03-23T05:06:59.813Z,99.90
2019-03-23T05:09:27.341Z,99.90
2019-03-23T05:11:54.858Z,99.90
2019-03-23T05:14:22.130Z,99.90
2019-03-23T05:16:49.399Z,99.90
2019-03-23T05:19:16.687Z,99.90
2019-03-23T05:21:43.942Z,99.90
2019-03-23T05:24:11.451Z,99.90
2019-03-23T05:26:38.886Z,99.90
2019-03-23T05:29:06.234Z,99.90
2019-03-23T05:31:34.869Z,99.90
2019-03-23T05:34:02.115Z,99.90
2019-03-23T05:36:29.527Z,99.90
2019-03-23T05:38:56.855Z,99.90
2019-03-23T05:41:24.378Z,99.90
2019-03-23T05:43:51.642Z,99.90
2019-03-23T05:46:19.176Z,99.90
2019-03-23T05:48:46.717Z,99.90
2019-03-23T05:51:14.222Z,99.90
2019-03-23T05:53:41.547Z,99.90
2019-03-23T05:56:08.842Z,99.90
2019-03-23T05:58:36.108Z,99.90
2019-03-23T06:01:03.624Z,99.90
2019-03-23T06:03:31.047Z,99.90
2019-03-23T06:05:58.480Z,99.90
2019-03-23T06:08:25.962Z,99.90
2019-03-23T06:10:53.486Z,99.90
2019-03-23T06:13:20.883Z,99.90
2019-03-23T06:15:48.382Z,99.90
2019-03-23T06:18:16.288Z,99.90
2019-03-23T06:20:43.685Z,99.90
2019-03-23T06:23:11.075Z,99.90
2019-03-23T06:25:38.583Z,99.90
2019-03-23T06:28:06.114Z,99.90
2019-03-23T06:30:33.375Z,99.90
2019-03-23T06:33:00.915Z,99.90
2019-03-23T06:35:28.321Z,98.50
2019-03-23T06:37:55.579Z,97.40
2019-03-23T06:40:22.979Z,96.30
2019-03-23T06:42:59.304Z,94.80
2019-03-23T06:45:20.979Z,93.40
2019-03-23T06:47:48.319Z,92.70
2019-03-23T06:50:15.842Z,92.60
2019-03-23T06:52:43.347Z,91.20
2019-03-23T06:55:11.871Z,91.50
2019-03-23T06:57:39.335Z,91.50
2019-03-23T07:00:07.973Z,91.50
2019-03-23T07:02:35.495Z,90.60
2019-03-23T07:05:03.179Z,90.00
2019-03-23T07:07:30.601Z,90.10
2019-03-23T07:09:58.028Z,89.40
2019-03-23T07:12:25.327Z,87.20
2019-03-23T07:14:52.762Z,85.70
2019-03-23T07:17:20.043Z,86.00
2019-03-23T07:19:47.311Z,86.10
2019-03-23T07:22:14.576Z,85.40
2019-03-23T07:24:42.409Z,86.60
2019-03-23T07:27:10.062Z,84.10
2019-03-23T07:29:37.460Z,81.50
2019-03-23T07:32:05.900Z,79.00
2019-03-23T07:34:33.678Z,76.80
2019-03-23T07:37:01.243Z,74.10
2019-03-23T07:39:30.490Z,71.60
2019-03-23T07:41:57.945Z,67.20
2019-03-23T07:44:25.491Z,68.60
2019-03-23T07:46:52.890Z,67.50
2019-03-23T07:49:20.356Z,65.60
2019-03-23T07:51:47.767Z,63.20
2019-03-23T07:54:15.164Z,62.50
2019-03-23T07:56:42.464Z,61.50
2019-03-23T07:59:09.965Z,62.50
2019-03-23T08:01:37.232Z,61.80
2019-03-23T08:04:04.623Z,65.10
2019-03-23T08:06:32.084Z,63.10
2019-03-23T08:08:59.442Z,65.50
2019-03-23T08:11:26.747Z,63.90
2019-03-23T08:13:54.159Z,63.70
2019-03-23T08:16:22.024Z,61.50
2019-03-23T08:18:49.373Z,59.40
2019-03-23T08:21:16.728Z,58.30
2019-03-23T08:23:45.332Z,60.00
2019-03-23T08:26:12.627Z,65.00
2019-03-23T08:28:40.018Z,67.90
2019-03-23T08:31:07.307Z,68.40
2019-03-23T08:33:34.700Z,69.00
2019-03-23T08:36:02.129Z,70.90
2019-03-23T08:38:29.517Z,72.70
2019-03-23T08:40:57.155Z,75.30
2019-03-23T08:43:24.655Z,79.10
2019-03-23T08:45:51.983Z,79.80
2019-03-23T08:48:19.260Z,80.50
2019-03-23T08:50:46.566Z,82.50
2019-03-23T08:53:13.883Z,84.50
2019-03-23T08:55:41.194Z,86.00
2019-03-23T08:58:08.594Z,87.30
2019-03-23T09:00:35.900Z,88.30
2019-03-23T09:03:03.878Z,88.60
2019-03-23T09:05:31.466Z,89.40
2019-03-23T09:07:58.985Z,90.10
2019-03-23T09:10:26.299Z,89.00
2019-03-23T09:12:53.566Z,88.60
2019-03-23T09:15:20.955Z,89.40
2019-03-23T09:17:48.355Z,89.30
2019-03-23T09:20:15.916Z,89.30
2019-03-23T09:22:43.285Z,89.00
2019-03-23T09:25:10.691Z,87.60
2019-03-23T09:27:38.071Z,87.40
2019-03-23T09:30:06.784Z,87.10
2019-03-23T09:32:34.099Z,86.20
2019-03-23T09:35:01.376Z,86.50
2019-03-23T09:37:28.695Z,83.60
2019-03-23T09:39:55.955Z,84.20
2019-03-23T09:42:23.194Z,82.10
2019-03-23T09:44:50.574Z,81.20
2019-03-23T09:47:17.967Z,80.20
2019-03-23T09:49:45.355Z,79.00
2019-03-23T09:52:12.759Z,76.80
2019-03-23T09:54:40.115Z,73.70
2019-03-23T09:57:07.478Z,70.70
2019-03-23T09:59:34.760Z,66.30
2019-03-23T10:02:02.318Z,63.90
2019-03-23T10:04:29.587Z,61.40
2019-03-23T10:06:57.138Z,60.40
2019-03-23T10:09:24.390Z,58.50
2019-03-23T10:11:51.794Z,56.90
2019-03-23T10:14:19.251Z,50.90
2019-03-23T10:16:46.779Z,50.00
2019-03-23T10:19:14.760Z,48.30
2019-03-23T10:21:42.687Z,46.80
2019-03-23T10:24:11.661Z,43.00
2019-03-23T10:26:41.587Z,42.50
2019-03-23T10:29:11.147Z,40.60
2019-03-23T10:31:39.046Z,39.40
2019-03-23T10:34:08.280Z,41.70
2019-03-23T10:36:35.751Z,41.70
2019-03-23T10:39:12.208Z,42.40
2019-03-23T10:41:44.724Z,43.80
2019-03-23T10:44:13.860Z,44.10
2019-03-23T10:46:45.413Z,44.00
2019-03-23T10:49:13.455Z,44.00
2019-03-23T10:51:41.553Z,44.40
2019-03-23T10:54:09.407Z,43.30
2019-03-23T10:56:37.390Z,41.90
2019-03-23T10:59:05.315Z,41.60
2019-03-23T11:01:34.359Z,40.90
2019-03-23T11:04:06.265Z,38.90
2019-03-23T11:06:39.685Z,37.50
2019-03-23T11:09:07.947Z,35.00
2019-03-23T11:11:42.035Z,37.20
2019-03-23T11:14:09.845Z,38.40
2019-03-23T11:16:40.539Z,36.70
2019-03-23T11:19:13.523Z,37.70
2019-03-23T11:21:41.202Z,37.30
2019-03-23T11:24:09.413Z,36.70
2019-03-23T11:26:40.124Z,36.40
2019-03-23T11:29:08.546Z,36.00
2019-03-23T11:31:39.138Z,34.30
2019-03-23T11:34:07.040Z,34.70
2019-03-23T11:36:35.413Z,36.00
2019-03-23T11:39:05.725Z,37.30
2019-03-23T11:41:33.649Z,36.90
2019-03-23T11:44:01.924Z,37.20
2019-03-23T11:46:29.986Z,36.60
2019-03-23T11:48:57.478Z,37.60
2019-03-23T11:51:25.528Z,37.10
2019-03-23T11:53:53.248Z,38.80
2019-03-23T11:56:20.979Z,38.70
2019-03-23T11:58:50.411Z,39.70
2019-03-23T12:01:18.422Z,39.70
2019-03-23T12:03:46.446Z,40.00
2019-03-23T12:06:14.256Z,40.20
2019-03-23T12:08:42.164Z,41.10
2019-03-23T12:11:19.300Z,41.10
2019-03-23T12:13:46.529Z,40.00
2019-03-23T12:16:14.056Z,41.00
2019-03-23T12:18:41.651Z,40.60
2019-03-23T12:21:09.375Z,42.50
2019-03-23T12:23:37.389Z,42.10
2019-03-23T12:26:05.399Z,40.90
2019-03-23T12:28:33.537Z,41.80
2019-03-23T12:31:01.367Z,43.00
2019-03-23T12:33:29.458Z,44.10
2019-03-23T12:35:59.104Z,44.00
2019-03-23T12:38:27.077Z,44.60
2019-03-23T12:40:56.739Z,45.80
2019-03-23T12:43:24.903Z,46.50
2019-03-23T12:45:52.510Z,48.90
2019-03-23T12:48:20.461Z,48.90
2019-03-23T12:50:48.327Z,49.90
2019-03-23T12:53:16.310Z,49.40
2019-03-23T12:55:45.984Z,48.40
2019-03-23T12:58:18.231Z,48.10
2019-03-23T13:00:51.480Z,47.70
2019-03-23T13:03:18.991Z,48.30
2019-03-23T13:05:47.117Z,48.80
2019-03-23T13:08:19.782Z,50.00
2019-03-23T13:10:48.871Z,51.30
2019-03-23T13:13:16.904Z,51.80
2019-03-23T13:15:45.067Z,52.70
2019-03-23T13:18:13.080Z,53.80
2019-03-23T13:20:40.483Z,54.60
2019-03-23T13:23:10.323Z,55.80
2019-03-23T13:25:38.179Z,57.20
2019-03-23T13:28:06.095Z,58.30
2019-03-23T13:30:34.239Z,59.40
2019-03-23T13:33:02.089Z,60.50
2019-03-23T13:35:30.211Z,60.80
2019-03-23T13:37:59.902Z,61.20
2019-03-23T13:40:30.534Z,61.70
2019-03-23T13:42:58.179Z,62.50
2019-03-23T13:45:26.040Z,64.50
2019-03-23T13:47:54.930Z,65.40
2019-03-23T13:50:26.795Z,64.60
2019-03-23T13:52:58.017Z,66.20
2019-03-23T13:55:28.284Z,67.50
2019-03-23T13:58:04.524Z,69.00
2019-03-23T14:00:32.518Z,70.50
2019-03-23T14:02:59.891Z,72.10
2019-03-23T14:05:27.277Z,73.00
2019-03-23T14:07:54.711Z,73.30
2019-03-23T14:10:22.145Z,73.60
2019-03-23T14:12:49.705Z,73.10
2019-03-23T14:15:16.971Z,73.40
2019-03-23T14:17:44.267Z,73.90
2019-03-23T14:20:11.710Z,73.70
2019-03-23T14:22:39.112Z,73.80
2019-03-23T14:25:06.480Z,74.20
2019-03-23T14:27:34.011Z,74.50
2019-03-23T14:30:01.623Z,74.90
2019-03-23T14:32:28.920Z,75.30
2019-03-23T14:34:56.371Z,76.40
2019-03-23T14:37:23.979Z,77.20
2019-03-23T14:39:51.314Z,76.90
2019-03-23T14:42:18.759Z,77.20
2019-03-23T14:44:46.038Z,77.70
2019-03-23T14:47:13.358Z,78.40
2019-03-23T14:49:40.771Z,78.60
2019-03-23T14:52:08.027Z,78.80
2019-03-23T14:54:35.318Z,79.10
2019-03-23T14:57:02.638Z,79.60
2019-03-23T14:59:30.228Z,80.10
2019-03-23T15:01:57.615Z,80.70
2019-03-23T15:04:25.144Z,81.80
2019-03-23T15:06:52.551Z,81.70
2019-03-23T15:09:19.965Z,82.10
2019-03-23T15:11:47.509Z,82.50
2019-03-23T15:14:14.943Z,83.10
2019-03-23T15:16:42.399Z,84.10
2019-03-23T15:19:09.702Z,84.50
2019-03-23T15:21:37.077Z,84.60
2019-03-23T15:24:04.611Z,85.70
2019-03-23T15:26:32.037Z,84.90
2019-03-23T15:28:59.403Z,84.20
2019-03-23T15:31:27.015Z,83.80
2019-03-23T15:33:54.391Z,84.20
2019-03-23T15:36:22.159Z,85.20
2019-03-23T15:38:49.383Z,85.00
2019-03-23T15:41:16.648Z,85.40
2019-03-23T15:43:44.033Z,86.20
2019-03-23T15:46:11.503Z,86.30
2019-03-23T15:48:38.924Z,87.30
2019-03-23T15:51:06.223Z,88.00
2019-03-23T15:53:33.760Z,88.70
2019-03-23T15:56:01.181Z,88.40
2019-03-23T15:58:28.570Z,89.10
2019-03-23T16:00:56.076Z,88.30
2019-03-23T16:03:23.374Z,89.00
2019-03-23T16:05:50.799Z,88.50
2019-03-23T16:08:18.182Z,89.10
2019-03-23T16:10:45.575Z,89.50
2019-03-23T16:13:13.143Z,89.50
2019-03-23T16:15:40.683Z,89.60
2019-03-23T16:18:07.928Z,89.70
2019-03-23T16:20:35.356Z,89.90
2019-03-23T16:23:03.000Z,90.00
2019-03-23T16:25:30.310Z,90.20
2019-03-23T16:27:57.724Z,90.40
2019-03-23T16:30:29.771Z,90.70
2019-03-23T16:32:57.215Z,90.90
2019-03-23T16:35:24.513Z,91.00
2019-03-23T16:37:51.922Z,91.70
2019-03-23T16:40:19.443Z,91.50
2019-03-23T16:42:50.100Z,91.80
2019-03-23T16:45:17.676Z,92.20
2019-03-23T16:47:45.304Z,92.40
2019-03-23T16:50:13.007Z,92.40
2019-03-23T16:52:40.462Z,92.40
2019-03-23T16:55:08.783Z,92.60
2019-03-23T16:57:36.191Z,92.50
2019-03-23T17:00:05.905Z,92.70
2019-03-23T17:02:33.189Z,92.80
2019-03-23T17:05:00.716Z,93.20
2019-03-23T17:07:28.260Z,93.20
2019-03-23T17:09:55.698Z,93.30
2019-03-23T17:12:22.977Z,93.80
2019-03-23T17:14:50.540Z,93.60
2019-03-23T17:17:17.978Z,93.70
2019-03-23T17:19:45.510Z,93.70
2019-03-23T17:22:12.915Z,93.90
2019-03-23T17:24:40.263Z,94.00
2019-03-23T17:27:07.656Z,94.00
2019-03-23T17:29:35.169Z,94.30
2019-03-23T17:32:02.667Z,94.50
2019-03-23T17:34:30.104Z,94.60
2019-03-23T17:36:57.510Z,94.90
2019-03-23T17:39:26.873Z,94.90
2019-03-23T17:41:54.146Z,95.10
2019-03-23T17:44:21.709Z,95.30
2019-03-23T17:46:49.260Z,95.30
2019-03-23T17:49:16.657Z,95.70
2019-03-23T17:51:44.119Z,95.70
2019-03-23T17:54:11.392Z,96.20
2019-03-23T17:56:38.814Z,96.50
2019-03-23T17:59:06.328Z,96.80
2019-03-23T18:01:33.874Z,97.00
2019-03-23T18:04:01.436Z,97.10
2019-03-23T18:06:28.760Z,97.30
2019-03-23T18:08:56.299Z,97.40
2019-03-23T18:11:23.572Z,97.50
2019-03-23T18:13:51.167Z,97.90
2019-03-23T18:16:18.807Z,98.10
2019-03-23T18:18:46.395Z,98.20
2019-03-23T18:21:13.945Z,98.10
2019-03-23T18:23:41.472Z,98.10
2019-03-23T18:26:09.126Z,98.20
2019-03-23T18:28:36.687Z,98.00
2019-03-23T18:31:04.247Z,98.10
2019-03-23T18:33:31.655Z,98.00
2019-03-23T18:35:59.182Z,98.10
2019-03-23T18:38:26.703Z,97.90
2019-03-23T18:40:54.216Z,97.70
2019-03-23T18:43:27.437Z,98.00
2019-03-23T18:45:51.248Z,97.60
2019-03-23T18:48:18.828Z,97.40
2019-03-23T18:50:46.443Z,97.20
2019-03-23T18:53:14.029Z,97.10
2019-03-23T18:55:41.560Z,97.10
2019-03-23T18:58:08.974Z,96.90
2019-03-23T19:00:41.753Z,97.00
2019-03-23T19:03:09.526Z,97.20
2019-03-23T19:05:37.281Z,97.00
2019-03-23T19:08:05.210Z,97.00
2019-03-23T19:10:32.826Z,97.00
2019-03-23T19:13:00.348Z,97.10
2019-03-23T19:15:27.918Z,97.00
2019-03-23T19:17:55.351Z,97.40
2019-03-23T19:20:22.913Z,97.20
2019-03-23T19:22:50.486Z,97.30
2019-03-23T19:25:18.610Z,97.30
2019-03-23T19:27:46.338Z,97.40
2019-03-23T19:30:14.624Z,97.50
2019-03-23T19:32:42.120Z,97.50
2019-03-23T19:35:09.652Z,97.60
2019-03-23T19:37:38.890Z,97.70
2019-03-23T19:40:06.659Z,97.70
2019-03-23T19:42:33.982Z,97.70
2019-03-23T19:45:01.483Z,97.90
2019-03-23T19:47:29.567Z,97.80
2019-03-23T19:49:56.965Z,98.00
2019-03-23T19:52:24.527Z,99.90
2019-03-23T19:54:52.109Z,98.80
2019-03-23T19:57:19.731Z,98.80
2019-03-23T19:59:47.164Z,98.80
2019-03-23T20:02:17.601Z,98.90
2019-03-23T20:04:45.042Z,99.20
2019-03-23T20:07:12.600Z,99.20
2019-03-23T20:09:39.975Z,99.30
2019-03-23T20:12:07.279Z,99.40
2019-03-23T20:14:34.689Z,99.40
2019-03-23T20:17:02.230Z,99.50
2019-03-23T20:19:29.621Z,99.40
2019-03-23T20:21:57.048Z,99.50
2019-03-23T20:24:24.479Z,99.60
2019-03-23T20:26:51.920Z,99.70
2019-03-23T20:29:19.222Z,99.80
2019-03-23T20:31:46.697Z,99.80
2019-03-23T20:34:14.257Z,99.40
2019-03-23T20:36:41.620Z,99.90
2019-03-23T20:39:09.293Z,99.90
2019-03-23T20:41:36.738Z,99.90
2019-03-23T20:44:09.420Z,99.90
2019-03-23T20:46:33.940Z,99.90
2019-03-23T20:49:01.676Z,99.90
2019-03-23T20:51:29.591Z,99.90
2019-03-23T20:53:57.151Z,99.90
2019-03-23T20:56:24.558Z,99.90
2019-03-23T20:58:51.958Z,99.90
2019-03-23T21:01:19.449Z,99.90
2019-03-23T21:03:46.846Z,99.90
2019-03-23T21:06:14.359Z,99.90
2019-03-23T21:08:41.770Z,99.90
2019-03-23T21:11:09.184Z,99.90
2019-03-23T21:13:36.494Z,99.90
2019-03-23T21:16:04.649Z,99.90
2019-03-23T21:18:32.038Z,99.90
2019-03-23T21:20:59.539Z,99.90
2019-03-23T21:23:26.887Z,99.90
2019-03-23T21:25:54.375Z,99.90
2019-03-23T21:28:21.797Z,99.90
2019-03-23T21:30:49.230Z,99.90
2019-03-23T21:33:16.569Z,99.90
2019-03-23T21:35:43.988Z,99.90
2019-03-23T21:38:11.531Z,99.90
2019-03-23T21:40:39.063Z,99.90
2019-03-23T21:43:06.546Z,99.90
2019-03-23T21:45:34.070Z,99.90
2019-03-23T21:48:01.567Z,99.90
2019-03-23T21:50:29.091Z,99.90
2019-03-23T21:52:56.527Z,99.90
2019-03-23T21:55:24.305Z,99.90
2019-03-23T21:57:55.295Z,99.90
2019-03-23T22:00:32.469Z,99.90
2019-03-23T22:03:00.124Z,99.90
2019-03-23T22:05:27.737Z,99.90
2019-03-23T22:07:56.424Z,99.90
2019-03-23T22:10:23.835Z,99.90
2019-03-23T22:12:51.379Z,99.90
2019-03-23T22:15:18.981Z,99.90
2019-03-23T22:17:46.383Z,99.90
2019-03-23T22:20:14.019Z,99.90
2019-03-23T22:22:41.703Z,99.90
2019-03-23T22:25:09.846Z,99.90
2019-03-23T22:27:37.555Z,99.90
2019-03-23T22:30:07.635Z,99.90
2019-03-23T22:32:35.085Z,99.90
2019-03-23T22:35:02.599Z,99.90
2019-03-23T22:37:34.411Z,99.90
2019-03-23T22:40:02.161Z,99.90
2019-03-23T22:42:29.515Z,99.90
2019-03-23T22:44:57.191Z,99.90
2019-03-23T22:47:32.266Z,99.90
2019-03-23T22:49:59.741Z,99.90
2019-03-23T22:52:27.152Z,99.90
2019-03-23T22:54:54.651Z,99.90
2019-03-23T22:57:22.203Z,99.90
2019-03-23T22:59:49.522Z,99.90
2019-03-23T23:02:16.797Z,99.90
2019-03-23T23:04:44.307Z,99.90
2019-03-23T23:07:12.124Z,99.90
2019-03-23T23:09:39.515Z,99.90
2019-03-23T23:12:07.313Z,99.90
2019-03-23T23:14:34.729Z,99.90
2019-03-23T23:17:02.232Z,99.90
2019-03-23T23:19:29.651Z,99.90
2019-03-23T23:21:57.154Z,99.90
2019-03-23T23:24:24.568Z,99.90
2019-03-23T23:26:52.007Z,99.90
2019-03-23T23:29:19.285Z,99.90
2019-03-23T23:31:46.698Z,99.90
2019-03-23T23:34:14.282Z,99.90
2019-03-23T23:36:41.565Z,99.90
2019-03-23T23:39:09.095Z,99.90
2019-03-23T23:41:36.490Z,99.90
2019-03-23T23:44:04.008Z,99.90
2019-03-23T23:46:36.786Z,99.90
2019-03-23T23:49:04.389Z,99.90
2019-03-23T23:51:31.926Z,99.90
2019-03-23T23:53:59.339Z,99.90
2019-03-23T23:56:33.373Z,99.90
2019-03-23T23:59:00.943Z,99.90
